createdAt,value
2019-04-23T00:01:55.591Z,16.73
2019-04-23T00:04:35.429Z,16.68
2019-04-23T00:07:44.478Z,16.62
2019-04-23T00:10:24.823Z,16.60
2019-04-23T00:13:12.477Z,16.54
2019-04-23T00:18:49.427Z,16.42
2019-04-23T00:21:57.370Z,16.34
2019-04-23T00:27:51.529Z,16.32
2019-04-23T00:30:46.672Z,16.32
2019-04-23T00:36:23.092Z,16.24
2019-04-23T00:39:08.601Z,16.19
2019-04-23T00:42:05.053Z,16.20
2019-04-23T00:47:38.706Z,16.15
2019-04-23T00:56:24.934Z,16.08
2019-04-23T00:59:01.406Z,16.06
2019-04-23T01:04:41.768Z,15.96
2019-04-23T01:07:34.892Z,15.90
2019-04-23T01:10:36.194Z,15.88
2019-04-23T01:13:28.751Z,15.88
2019-04-23T01:16:11.627Z,15.84
2019-04-23T01:19:06.798Z,15.80
2019-04-23T01:21:43.300Z,15.76
2019-04-23T01:24:50.851Z,15.72
2019-04-23T01:31:16.661Z,15.70
2019-04-23T01:34:11.135Z,15.68
2019-04-23T01:37:03.939Z,15.62
2019-04-23T01:39:45.421Z,15.54
2019-04-23T01:42:42.027Z,15.48
2019-04-23T01:45:25.953Z,15.44
2019-04-23T01:48:12.858Z,15.45
2019-04-23T01:53:56.669Z,15.25
2019-04-23T01:56:39.951Z,15.27
2019-04-23T01:59:43.549Z,15.22
2019-04-23T02:02:29.265Z,15.22
2019-04-23T02:05:25.315Z,15.21
2019-04-23T02:08:09.536Z,15.21
2019-04-23T02:13:53.286Z,15.13
2019-04-23T02:16:39.207Z,15.13
2019-04-23T02:19:32.126Z,15.09
2019-04-23T02:22:30.917Z,15.05
2019-04-23T02:25:42.279Z,15.04
2019-04-23T02:28:18.201Z,15.03
2019-04-23T02:34:18.616Z,14.92
2019-04-23T02:39:49.547Z,14.87
2019-04-23T02:42:49.650Z,14.88
2019-04-23T02:45:33.216Z,14.86
2019-04-23T02:48:19.722Z,14.84
2019-04-23T02:51:03.963Z,14.80
2019-04-23T02:54:04.168Z,14.75
2019-04-23T03:02:43.650Z,14.62
2019-04-23T03:05:26.430Z,14.61
2019-04-23T03:08:22.537Z,14.57
2019-04-23T03:11:25.167Z,14.55
2019-04-23T03:14:00.356Z,14.55
2019-04-23T03:17:00.261Z,14.52
2019-04-23T03:20:01.578Z,14.46
2019-04-23T03:23:22.886Z,14.49
2019-04-23T03:26:21.314Z,14.40
2019-04-23T03:37:33.272Z,14.31
2019-04-23T03:43:18.909Z,14.21
2019-04-23T03:46:12.452Z,14.18
2019-04-23T03:51:42.415Z,14.14
2019-04-23T03:57:24.859Z,14.11
2019-04-23T04:00:12.596Z,14.14
2019-04-23T04:06:11.468Z,14.05
2019-04-23T04:08:36.959Z,14.10
2019-04-23T04:14:36.791Z,14.04
2019-04-23T04:20:10.524Z,14.03
2019-04-23T04:23:00.408Z,14.03
2019-04-23T04:28:44.679Z,13.98
2019-04-23T04:31:30.960Z,13.85
2019-04-23T04:42:49.021Z,13.87
2019-04-23T04:48:27.287Z,13.86
2019-04-23T04:51:19.447Z,13.89
2019-04-23T04:57:02.581Z,13.89
2019-04-23T04:59:53.936Z,13.92
2019-04-23T05:11:11.756Z,13.99
2019-04-23T05:13:59.753Z,14.02
2019-04-23T05:16:49.108Z,14.08
2019-04-23T05:19:43.418Z,14.09
2019-04-23T05:22:22.579Z,14.14
2019-04-23T05:25:10.969Z,14.14
2019-04-23T05:28:07.702Z,14.17
2019-04-23T05:33:46.436Z,14.28
2019-04-23T05:36:34.383Z,14.29
2019-04-23T05:39:29.099Z,14.36
2019-04-23T05:42:19.566Z,14.34
2019-04-23T05:45:02.563Z,14.38
2019-04-23T05:47:58.676Z,14.42
2019-04-23T05:50:50.618Z,14.48
2019-04-23T05:53:39.646Z,14.47
2019-04-23T05:56:27.728Z,14.50
2019-04-23T06:02:07.519Z,14.60
2019-04-23T06:05:02.166Z,14.61
2019-04-23T06:07:47.754Z,14.65
2019-04-23T06:10:44.301Z,14.70
2019-04-23T06:13:33.762Z,14.76
2019-04-23T06:16:22.186Z,14.76
2019-04-23T06:19:14.119Z,14.73
2019-04-23T06:22:11.173Z,14.77
2019-04-23T06:24:45.616Z,14.82
2019-04-23T06:27:43.138Z,14.87
2019-04-23T06:30:35.289Z,14.91
2019-04-23T06:33:22.810Z,15.03
2019-04-23T06:36:15.574Z,15.12
2019-04-23T06:38:57.123Z,15.10
2019-04-23T06:41:53.090Z,15.07
2019-04-23T06:48:02.000Z,15.16
2019-04-23T06:50:36.647Z,15.23
2019-04-23T06:53:20.968Z,15.29
2019-04-23T06:56:21.090Z,15.38
2019-04-23T06:59:09.537Z,15.40
2019-04-23T07:01:59.661Z,15.41
2019-04-23T07:04:55.184Z,15.49
2019-04-23T07:10:26.727Z,15.71
2019-04-23T07:13:20.626Z,15.79
2019-04-23T07:16:04.729Z,15.85
2019-04-23T07:19:16.532Z,15.89
2019-04-23T07:21:51.351Z,15.94
2019-04-23T07:24:37.729Z,16.02
2019-04-23T07:27:24.568Z,16.03
2019-04-23T07:33:11.658Z,16.02
2019-04-23T07:36:03.871Z,16.10
2019-04-23T07:42:09.373Z,16.28
2019-04-23T07:45:19.359Z,16.40
2019-04-23T07:48:12.431Z,16.54
2019-04-23T07:50:55.668Z,16.68
2019-04-23T07:53:51.790Z,16.79
2019-04-23T07:56:45.982Z,16.85
2019-04-23T07:59:41.262Z,16.97
2019-04-23T08:02:26.216Z,17.06
2019-04-23T08:05:15.650Z,17.11
2019-04-23T08:11:30.612Z,17.14
2019-04-23T08:14:00.551Z,17.22
2019-04-23T08:16:42.436Z,17.37
2019-04-23T08:19:49.407Z,17.50
2019-04-23T08:25:52.397Z,17.78
2019-04-23T08:28:49.917Z,17.86
2019-04-23T08:31:32.294Z,17.96
2019-04-23T08:39:52.127Z,18.21
2019-04-23T08:45:51.355Z,18.43
2019-04-23T08:48:41.419Z,18.58
2019-04-23T08:54:32.212Z,18.85
2019-04-23T08:57:08.728Z,18.94
2019-04-23T08:59:55.903Z,19.01
2019-04-23T09:02:54.080Z,19.11
2019-04-23T09:05:45.103Z,19.21
2019-04-23T09:08:44.393Z,19.32
2019-04-23T09:11:35.827Z,19.47
2019-04-23T09:14:24.385Z,19.60
2019-04-23T09:17:06.839Z,19.77
2019-04-23T09:28:33.277Z,20.33
2019-04-23T09:31:30.383Z,20.41
2019-04-23T09:34:42.936Z,20.46
2019-04-23T09:37:58.459Z,20.52
2019-04-23T09:41:08.720Z,20.64
2019-04-23T09:50:01.271Z,20.93
2019-04-23T09:52:56.133Z,21.08
2019-04-23T09:58:22.213Z,21.36
2019-04-23T10:04:00.203Z,21.64
2019-04-23T10:06:55.316Z,21.82
2019-04-23T10:09:32.379Z,21.95
2019-04-23T10:12:22.112Z,22.11
2019-04-23T10:15:21.496Z,22.35
2019-04-23T10:18:02.509Z,22.52
2019-04-23T10:20:52.232Z,22.64
2019-04-23T10:23:41.254Z,22.79
2019-04-23T10:26:30.401Z,22.93
2019-04-23T10:29:23.757Z,23.05
2019-04-23T10:32:13.609Z,23.21
2019-04-23T10:35:14.639Z,23.36
2019-04-23T10:37:58.582Z,23.48
2019-04-23T10:40:46.764Z,23.61
2019-04-23T10:43:36.418Z,23.73
2019-04-23T10:47:12.029Z,23.66
2019-04-23T10:53:05.052Z,23.46
2019-04-23T10:58:35.158Z,23.39
2019-04-23T11:01:29.593Z,23.38
2019-04-23T11:04:32.853Z,23.38
2019-04-23T11:07:25.472Z,23.41
2019-04-23T11:10:07.236Z,23.45
2019-04-23T11:15:55.708Z,23.50
2019-04-23T11:18:53.599Z,23.58
2019-04-23T11:21:34.232Z,23.59
2019-04-23T11:24:33.054Z,23.71
2019-04-23T11:27:16.030Z,23.80
2019-04-23T11:33:05.097Z,24.02
2019-04-23T11:35:50.570Z,24.02
2019-04-23T11:41:27.530Z,24.10
2019-04-23T11:47:07.774Z,24.19
2019-04-23T11:49:55.243Z,24.12
2019-04-23T11:58:25.465Z,23.89
2019-04-23T12:01:51.078Z,23.82
2019-04-23T12:04:48.595Z,23.81
2019-04-23T12:07:50.795Z,23.88
2019-04-23T12:11:27.512Z,23.92
2019-04-23T12:14:09.553Z,24.00
2019-04-23T12:17:07.796Z,24.08
2019-04-23T12:20:00.074Z,24.17
2019-04-23T12:22:38.960Z,24.25
2019-04-23T12:28:23.531Z,24.46
2019-04-23T12:31:10.085Z,24.66
2019-04-23T12:34:09.500Z,24.73
2019-04-23T12:36:51.174Z,24.79
2019-04-23T12:39:49.481Z,24.81
2019-04-23T12:45:33.512Z,24.82
2019-04-23T12:48:31.256Z,24.79
2019-04-23T12:53:19.642Z,24.80
2019-04-23T12:56:02.009Z,24.73
2019-04-23T12:58:44.974Z,24.70
2019-04-23T13:01:51.362Z,24.69
2019-04-23T13:04:41.609Z,24.68
2019-04-23T13:07:33.292Z,24.73
2019-04-23T13:10:14.843Z,24.67
2019-04-23T13:15:51.911Z,24.60
2019-04-23T13:18:47.026Z,24.50
2019-04-23T13:25:01.992Z,24.44
2019-04-23T13:27:54.296Z,24.33
2019-04-23T13:33:40.984Z,24.29
2019-04-23T13:36:32.740Z,24.37
2019-04-23T13:39:18.665Z,24.46
2019-04-23T13:42:18.128Z,24.65
2019-04-23T13:45:13.844Z,24.79
2019-04-23T13:47:54.724Z,25.04
2019-04-23T13:50:50.046Z,25.29
2019-04-23T13:56:24.867Z,25.53
2019-04-23T13:59:24.296Z,25.49
2019-04-23T14:02:08.990Z,25.45
2019-04-23T14:05:13.013Z,25.43
2019-04-23T14:08:13.636Z,25.35
2019-04-23T14:10:59.142Z,25.28
2019-04-23T14:13:59.721Z,25.31
2019-04-23T14:16:34.325Z,25.31
2019-04-23T14:19:16.410Z,25.35
2019-04-23T14:22:31.391Z,25.45
2019-04-23T14:28:00.181Z,25.60
2019-04-23T14:30:53.523Z,25.44
2019-04-23T14:33:47.082Z,25.63
2019-04-23T14:36:25.467Z,25.85
2019-04-23T14:39:32.027Z,25.91
2019-04-23T14:42:20.401Z,26.02
2019-04-23T14:45:13.828Z,26.05
2019-04-23T14:48:02.792Z,26.08
2019-04-23T14:50:41.326Z,26.12
2019-04-23T14:59:07.365Z,26.29
2019-04-23T15:02:05.202Z,26.34
2019-04-23T15:07:47.101Z,26.40
2019-04-23T15:10:41.314Z,26.31
2019-04-23T15:16:20.834Z,26.37
2019-04-23T15:25:19.838Z,26.62
2019-04-23T15:28:06.608Z,26.79
2019-04-23T15:30:50.856Z,26.83
2019-04-23T15:33:51.886Z,27.01
2019-04-23T15:42:22.742Z,26.81
2019-04-23T15:45:00.946Z,26.75
2019-04-23T15:48:00.577Z,26.53
2019-04-23T15:50:43.255Z,26.41
2019-04-23T15:53:24.059Z,26.48
2019-04-23T15:56:35.667Z,26.64
2019-04-23T16:01:43.471Z,26.56
2019-04-23T16:04:31.725Z,26.39
2019-04-23T16:07:38.157Z,26.24
2019-04-23T16:10:54.603Z,25.91
2019-04-23T16:13:54.379Z,25.64
2019-04-23T16:16:30.053Z,25.39
2019-04-23T16:19:38.072Z,25.14
2019-04-23T16:22:28.489Z,24.92
2019-04-23T16:25:12.891Z,24.61
2019-04-23T16:28:12.910Z,24.55
2019-04-23T16:31:03.263Z,24.54
2019-04-23T16:34:05.115Z,24.47
2019-04-23T16:36:54.690Z,24.41
2019-04-23T16:39:52.386Z,24.33
2019-04-23T16:42:38.197Z,24.02
2019-04-23T16:48:40.659Z,23.96
2019-04-23T16:54:01.664Z,23.62
2019-04-23T16:57:15.604Z,23.64
2019-04-23T17:00:02.619Z,23.65
2019-04-23T17:02:34.221Z,23.66
2019-04-23T17:05:35.456Z,23.65
2019-04-23T17:11:15.172Z,23.61
2019-04-23T17:14:09.244Z,23.39
2019-04-23T17:16:59.887Z,23.15
2019-04-23T17:19:50.456Z,23.02
2019-04-23T17:22:53.155Z,22.97
2019-04-23T17:25:48.564Z,22.81
2019-04-23T17:28:38.351Z,22.83
2019-04-23T17:31:35.143Z,22.78
2019-04-23T17:34:23.594Z,22.78
2019-04-23T17:37:17.992Z,22.70
2019-04-23T17:40:12.258Z,22.62
2019-04-23T17:43:08.975Z,22.56
2019-04-23T17:46:05.251Z,22.42
2019-04-23T17:51:51.961Z,22.01
2019-04-23T17:54:45.210Z,21.92
2019-04-23T17:57:37.594Z,21.79
2019-04-23T18:03:23.717Z,21.69
2019-04-23T18:09:14.283Z,21.46
2019-04-23T18:12:07.249Z,21.40
2019-04-23T18:14:52.723Z,21.25
2019-04-23T18:17:48.522Z,21.13
2019-04-23T18:21:05.084Z,21.08
2019-04-23T18:24:14.887Z,20.95
2019-04-23T18:27:11.909Z,20.91
2019-04-23T18:33:49.044Z,20.86
2019-04-23T18:36:09.328Z,20.66
2019-04-23T18:39:08.556Z,20.68
2019-04-23T18:42:13.625Z,20.63
2019-04-23T18:44:52.158Z,20.50
2019-04-23T18:47:45.836Z,20.34
2019-04-23T18:50:39.691Z,20.35
2019-04-23T18:53:35.287Z,20.31
2019-04-23T18:56:19.273Z,20.28
2019-04-23T19:02:24.075Z,20.12
2019-04-23T19:08:42.252Z,19.96
2019-04-23T19:12:01.648Z,19.87
2019-04-23T19:14:56.160Z,19.87
2019-04-23T19:20:37.925Z,19.69
2019-04-23T19:25:54.655Z,19.44
2019-04-23T19:29:32.242Z,19.40
2019-04-23T19:37:34.434Z,19.33
2019-04-23T19:40:24.517Z,19.30
2019-04-23T19:43:11.216Z,19.26
2019-04-23T19:51:42.776Z,19.07
2019-04-23T19:54:54.166Z,19.03
2019-04-23T19:57:24.335Z,19.00
2019-04-23T20:00:11.435Z,18.91
2019-04-23T20:03:19.935Z,18.85
2019-04-23T20:06:15.016Z,18.81
2019-04-23T20:11:52.651Z,18.69
2019-04-23T20:17:37.997Z,18.44
2019-04-23T20:20:10.264Z,18.45
2019-04-23T20:23:18.266Z,18.42
2019-04-23T20:32:15.344Z,18.28
2019-04-23T20:38:09.766Z,18.16
2019-04-23T20:40:40.117Z,18.10
2019-04-23T20:43:22.798Z,18.05
2019-04-23T20:46:14.864Z,17.96
2019-04-23T20:49:10.944Z,17.89
2019-04-23T20:54:56.592Z,17.74
2019-04-23T20:57:47.311Z,17.63
2019-04-23T21:00:56.372Z,17.64
2019-04-23T21:06:30.071Z,17.57
2019-04-23T21:12:16.306Z,17.47
2019-04-23T21:18:22.441Z,17.28
2019-04-23T21:20:42.726Z,17.24
2019-04-23T21:23:30.250Z,17.19
2019-04-23T21:26:19.936Z,17.11
2019-04-23T21:29:16.968Z,17.01
2019-04-23T21:32:09.314Z,16.96
2019-04-23T21:35:04.544Z,16.97
2019-04-23T21:47:09.934Z,16.73
2019-04-23T21:50:11.917Z,16.60
2019-04-23T21:52:56.327Z,16.44
2019-04-23T21:55:54.525Z,16.36
2019-04-23T21:58:47.126Z,16.28
2019-04-23T22:04:25.314Z,16.21
2019-04-23T22:07:09.567Z,16.11
2019-04-23T22:13:05.381Z,16.11
2019-04-23T22:15:58.325Z,16.04
2019-04-23T22:18:37.913Z,16.06
2019-04-23T22:21:20.861Z,16.03
2019-04-23T22:24:05.658Z,16.04
2019-04-23T22:26:57.654Z,16.03
2019-04-23T22:29:49.211Z,16.02
2019-04-23T22:32:47.707Z,16.02
2019-04-23T22:35:30.501Z,15.97
2019-04-23T22:38:30.092Z,15.98
2019-04-23T22:41:09.089Z,15.95
2019-04-23T22:46:59.224Z,15.96
2019-04-23T22:55:42.847Z,15.83
2019-04-23T22:58:27.622Z,15.74
2019-04-23T23:10:02.386Z,15.54
2019-04-23T23:12:59.986Z,15.52
2019-04-23T23:15:43.831Z,15.50
2019-04-23T23:18:28.422Z,15.50
2019-04-23T23:24:12.707Z,15.52
2019-04-23T23:27:00.380Z,15.53
2019-04-23T23:29:58.118Z,15.55
2019-04-23T23:32:40.175Z,15.56
2019-04-23T23:35:28.416Z,15.56
2019-04-23T23:38:31.388Z,15.57
2019-04-23T23:44:24.068Z,15.58
2019-04-23T23:47:01.683Z,15.60
2019-04-23T23:49:48.521Z,15.57
2019-04-23T23:52:38.967Z,15.54
2019-04-23T23:55:24.994Z,15.59
2019-04-23T23:58:15.038Z,15.57
